sensor_id;sensor_type;location;lat;lon;timestamp;pressure;altitude;pressure_sealevel;temperature;humidity
24154;BME280;12312;53.362;-1.518;2022-12-07T00:01:38;100087.59;;;2.15;100.00
24154;BME280;12312;53.362;-1.518;2022-12-07T00:04:05;100084.09;;;2.15;100.00
24154;BME280;12312;53.362;-1.518;2022-12-07T00:06:34;100091.16;;;2.13;100.00
24154;BME280;12312;53.362;-1.518;2022-12-07T00:09:00;100092.00;;;2.13;100.00
24154;BME280;12312;53.362;-1.518;2022-12-07T00:11:26;100085.91;;;2.13;99.91
24154;BME280;12312;53.362;-1.518;2022-12-07T00:13:54;100092.88;;;2.14;100.00
24154;BME280;12312;53.362;-1.518;2022-12-07T00:16:25;100084.16;;;2.12;100.00
24154;BME280;12312;53.362;-1.518;2022-12-07T00:18:51;100087.78;;;2.08;100.00
24154;BME280;12312;53.362;-1.518;2022-12-07T00:21:21;100093.03;;;2.08;100.00
24154;BME280;12312;53.362;-1.518;2022-12-07T00:23:49;100087.94;;;2.02;100.00
24154;BME280;12312;53.362;-1.518;2022-12-07T00:26:23;100085.34;;;2.00;100.00
24154;BME280;12312;53.362;-1.518;2022-12-07T00:28:51;100088.84;;;1.99;100.00
24154;BME280;12312;53.362;-1.518;2022-12-07T00:31:19;100083.56;;;2.01;100.00
24154;BME280;12312;53.362;-1.518;2022-12-07T00:33:45;100086.25;;;1.98;100.00
24154;BME280;12312;53.362;-1.518;2022-12-07T00:36:14;100081.00;;;1.98;100.00
24154;BME280;12312;53.362;-1.518;2022-12-07T00:38:41;100085.38;;;1.99;100.00
24154;BME280;12312;53.362;-1.518;2022-12-07T00:41:14;100077.66;;;1.93;100.00
24154;BME280;12312;53.362;-1.518;2022-12-07T00:43:41;100079.28;;;1.97;100.00
24154;BME280;12312;53.362;-1.518;2022-12-07T00:46:08;100079.41;;;1.92;100.00
24154;BME280;12312;53.362;-1.518;2022-12-07T00:48:34;100076.81;;;1.91;100.00
24154;BME280;12312;53.362;-1.518;2022-12-07T00:51:00;100078.66;;;1.87;100.00
24154;BME280;12312;53.362;-1.518;2022-12-07T00:53:27;100083.06;;;1.87;100.00
24154;BME280;12312;53.362;-1.518;2022-12-07T00:55:53;100080.31;;;1.91;100.00
24154;BME280;12312;53.362;-1.518;2022-12-07T00:58:19;100079.66;;;1.81;100.00
24154;BME280;12312;53.362;-1.518;2022-12-07T01:00:45;100083.97;;;1.84;99.98
24154;BME280;12312;53.362;-1.518;2022-12-07T01:03:12;100076.19;;;1.79;100.00
24154;BME280;12312;53.362;-1.518;2022-12-07T01:05:39;100079.66;;;1.81;99.51
24154;BME280;12312;53.362;-1.518;2022-12-07T01:08:04;100072.78;;;1.77;100.00
24154;BME280;12312;53.362;-1.518;2022-12-07T01:10:30;100069.22;;;1.80;99.70
24154;BME280;12312;53.362;-1.518;2022-12-07T01:12:58;100057.81;;;1.81;99.16
24154;BME280;12312;53.362;-1.518;2022-12-07T01:15:25;100064.75;;;1.83;98.94
24154;BME280;12312;53.362;-1.518;2022-12-07T01:17:50;100065.63;;;1.82;99.03
24154;BME280;12312;53.362;-1.518;2022-12-07T01:20:16;100060.53;;;1.76;99.09
24154;BME280;12312;53.362;-1.518;2022-12-07T01:22:43;100060.31;;;1.85;97.85
24154;BME280;12312;53.362;-1.518;2022-12-07T01:25:10;100056.81;;;1.87;97.57
24154;BME280;12312;53.362;-1.518;2022-12-07T01:28:01;100053.44;;;1.81;97.95
24154;BME280;12312;53.362;-1.518;2022-12-07T01:30:27;100052.56;;;1.81;98.20
24154;BME280;12312;53.362;-1.518;2022-12-07T01:32:54;100047.28;;;1.82;98.05
24154;BME280;12312;53.362;-1.518;2022-12-07T01:35:20;100048.31;;;1.75;97.83
24154;BME280;12312;53.362;-1.518;2022-12-07T01:37:45;100043.16;;;1.72;97.89
24154;BME280;12312;53.362;-1.518;2022-12-07T01:40:11;100047.56;;;1.70;98.16
24154;BME280;12312;53.362;-1.518;2022-12-07T01:42:37;100045.00;;;1.67;97.92
24154;BME280;12312;53.362;-1.518;2022-12-07T01:45:41;100050.13;;;1.73;97.08
24154;BME280;12312;53.362;-1.518;2022-12-07T01:48:09;100051.94;;;1.71;97.20
24154;BME280;12312;53.362;-1.518;2022-12-07T01:50:37;100051.78;;;1.77;96.67
24154;BME280;12312;53.362;-1.518;2022-12-07T01:53:06;100045.59;;;1.80;96.08
24154;BME280;12312;53.362;-1.518;2022-12-07T01:55:41;100044.56;;;1.85;95.53
24154;BME280;12312;53.362;-1.518;2022-12-07T01:58:10;100044.56;;;1.85;96.86
24154;BME280;12312;53.362;-1.518;2022-12-07T02:00:37;100049.78;;;1.87;95.25
24154;BME280;12312;53.362;-1.518;2022-12-07T02:03:12;100043.63;;;1.90;95.50
24154;BME280;12312;53.362;-1.518;2022-12-07T02:05:48;100047.09;;;1.90;95.66
24154;BME280;12312;53.362;-1.518;2022-12-07T02:08:19;100044.50;;;1.88;95.38
24154;BME280;12312;53.362;-1.518;2022-12-07T02:10:47;100039.31;;;1.85;95.81
24154;BME280;12312;53.362;-1.518;2022-12-07T02:13:20;100054.03;;;1.93;95.77
24154;BME280;12312;53.362;-1.518;2022-12-07T02:18:44;100054.75;;;1.98;95.72
24154;BME280;12312;53.362;-1.518;2022-12-07T02:32:44;100018.47;;;1.79;94.83
24154;BME280;12312;53.362;-1.518;2022-12-07T02:35:39;100032.59;;;1.75;94.67
24154;BME280;12312;53.362;-1.518;2022-12-07T02:38:26;100025.63;;;1.74;94.35
24154;BME280;12312;53.362;-1.518;2022-12-07T02:41:13;100028.25;;;1.74;94.38
24154;BME280;12312;53.362;-1.518;2022-12-07T02:43:47;100030.94;;;1.71;93.80
24154;BME280;12312;53.362;-1.518;2022-12-07T02:46:48;100026.56;;;1.70;94.26
24154;BME280;12312;53.362;-1.518;2022-12-07T02:49:12;100020.53;;;1.68;94.35
24154;BME280;12312;53.362;-1.518;2022-12-07T02:51:42;100025.91;;;1.62;94.86
24154;BME280;12312;53.362;-1.518;2022-12-07T02:54:17;100010.34;;;1.56;94.64
24154;BME280;12312;53.362;-1.518;2022-12-07T03:07:06;100008.72;;;1.49;94.55
24154;BME280;12312;53.362;-1.518;2022-12-07T03:09:45;100004.28;;;1.53;94.57
24154;BME280;12312;53.362;-1.518;2022-12-07T03:12:27;100003.34;;;1.55;93.59
24154;BME280;12312;53.362;-1.518;2022-12-07T03:15:08;100006.94;;;1.51;94.00
24154;BME280;12312;53.362;-1.518;2022-12-07T03:17:39;100003.56;;;1.46;94.40
24154;BME280;12312;53.362;-1.518;2022-12-07T03:20:09;100003.50;;;1.49;95.01
24154;BME280;12312;53.362;-1.518;2022-12-07T03:22:38;99998.47;;;1.40;94.46
24154;BME280;12312;53.362;-1.518;2022-12-07T03:25:10;100001.91;;;1.42;94.76
24154;BME280;12312;53.362;-1.518;2022-12-07T03:27:47;99992.53;;;1.32;95.39
24154;BME280;12312;53.362;-1.518;2022-12-07T03:30:29;99991.84;;;1.24;95.60
24154;BME280;12312;53.362;-1.518;2022-12-07T03:33:28;99989.28;;;1.23;94.97
24154;BME280;12312;53.362;-1.518;2022-12-07T03:36:01;99991.84;;;1.24;94.95
24154;BME280;12312;53.362;-1.518;2022-12-07T03:38:41;99987.50;;;1.23;95.30
24154;BME280;12312;53.362;-1.518;2022-12-07T03:41:22;99986.75;;;1.18;95.31
24154;BME280;12312;53.362;-1.518;2022-12-07T03:43:49;99987.63;;;1.17;95.88
24154;BME280;12312;53.362;-1.518;2022-12-07T03:46:50;99984.09;;;1.20;95.33
24154;BME280;12312;53.362;-1.518;2022-12-07T03:51:50;99977.03;;;1.22;95.21
24154;BME280;12312;53.362;-1.518;2022-12-07T03:54:36;99976.94;;;1.26;94.16
24154;BME280;12312;53.362;-1.518;2022-12-07T03:57:05;99980.75;;;1.13;94.91
24154;BME280;12312;53.362;-1.518;2022-12-07T03:59:32;99972.88;;;1.13;95.03
24154;BME280;12312;53.362;-1.518;2022-12-07T04:02:04;99969.50;;;1.08;95.82
24154;BME280;12312;53.362;-1.518;2022-12-07T04:04:31;99971.16;;;1.12;95.08
24154;BME280;12312;53.362;-1.518;2022-12-07T04:06:57;99971.16;;;1.12;95.56
24154;BME280;12312;53.362;-1.518;2022-12-07T04:09:22;99977.38;;;1.07;95.74
24154;BME280;12312;53.362;-1.518;2022-12-07T04:11:48;99965.16;;;1.07;96.16
24154;BME280;12312;53.362;-1.518;2022-12-07T04:14:14;99957.22;;;1.10;95.88
24154;BME280;12312;53.362;-1.518;2022-12-07T04:16:54;99963.44;;;1.06;95.48
24154;BME280;12312;53.362;-1.518;2022-12-07T04:19:30;99969.56;;;1.05;95.84
24154;BME280;12312;53.362;-1.518;2022-12-07T04:21:57;99970.44;;;1.06;95.43
24154;BME280;12312;53.362;-1.518;2022-12-07T04:24:24;99959.00;;;1.08;95.72
24154;BME280;12312;53.362;-1.518;2022-12-07T04:26:49;99960.91;;;1.03;95.64
24154;BME280;12312;53.362;-1.518;2022-12-07T04:29:15;99958.22;;;1.06;95.36
24154;BME280;12312;53.362;-1.518;2022-12-07T04:31:42;99962.59;;;1.04;95.37
24154;BME280;12312;53.362;-1.518;2022-12-07T04:34:08;99960.97;;;0.99;95.63
24154;BME280;12312;53.362;-1.518;2022-12-07T04:36:35;99958.31;;;1.00;95.25
24154;BME280;12312;53.362;-1.518;2022-12-07T04:39:01;99960.09;;;1.00;94.74
24154;BME280;12312;53.362;-1.518;2022-12-07T04:41:27;99958.28;;;1.03;95.41
24154;BME280;12312;53.362;-1.518;2022-12-07T04:43:57;99952.97;;;1.06;95.07
24154;BME280;12312;53.362;-1.518;2022-12-07T04:46:24;99946.97;;;1.01;95.00
24154;BME280;12312;53.362;-1.518;2022-12-07T04:48:51;99953.91;;;1.02;94.92
24154;BME280;12312;53.362;-1.518;2022-12-07T04:51:24;99952.28;;;0.98;95.19
24154;BME280;12312;53.362;-1.518;2022-12-07T04:53:51;99953.19;;;0.96;96.03
24154;BME280;12312;53.362;-1.518;2022-12-07T04:56:17;99947.03;;;0.98;95.56
24154;BME280;12312;53.362;-1.518;2022-12-07T04:58:44;99945.22;;;1.00;95.20
24154;BME280;12312;53.362;-1.518;2022-12-07T05:01:11;99948.59;;;1.05;95.41
24154;BME280;12312;53.362;-1.518;2022-12-07T05:03:37;99946.09;;;1.01;95.24
24154;BME280;12312;53.362;-1.518;2022-12-07T05:06:04;99938.19;;;1.02;95.40
24154;BME280;12312;53.362;-1.518;2022-12-07T05:08:30;99932.00;;;1.06;94.88
24154;BME280;12312;53.362;-1.518;2022-12-07T05:10:56;99945.09;;;1.06;94.88
24154;BME280;12312;53.362;-1.518;2022-12-07T05:13:22;99943.41;;;1.04;95.15
24154;BME280;12312;53.362;-1.518;2022-12-07T05:15:48;99947.72;;;1.06;95.53
24154;BME280;12312;53.362;-1.518;2022-12-07T05:18:14;99946.75;;;1.10;95.03
24154;BME280;12312;53.362;-1.518;2022-12-07T05:20:41;99934.63;;;1.06;95.32
24154;BME280;12312;53.362;-1.518;2022-12-07T05:23:08;99939.03;;;1.04;94.69
24154;BME280;12312;53.362;-1.518;2022-12-07T05:25:34;99939.00;;;1.06;94.92
24154;BME280;12312;53.362;-1.518;2022-12-07T05:28:01;99934.63;;;1.06;94.73
24154;BME280;12312;53.362;-1.518;2022-12-07T05:30:28;99943.28;;;1.08;94.85
24154;BME280;12312;53.362;-1.518;2022-12-07T05:32:53;99933.78;;;1.04;94.58
24154;BME280;12312;53.362;-1.518;2022-12-07T05:35:19;99939.94;;;1.03;94.94
24154;BME280;12312;53.362;-1.518;2022-12-07T05:37:45;99943.50;;;0.99;94.91
24154;BME280;12312;53.362;-1.518;2022-12-07T05:40:12;99943.56;;;0.96;94.87
24154;BME280;12312;53.362;-1.518;2022-12-07T05:42:40;99948.81;;;0.96;95.10
24154;BME280;12312;53.362;-1.518;2022-12-07T05:45:07;99942.69;;;0.96;95.35
24154;BME280;12312;53.362;-1.518;2022-12-07T05:47:33;99947.16;;;0.92;95.31
24154;BME280;12312;53.362;-1.518;2022-12-07T05:49:58;99940.16;;;0.93;95.32
24154;BME280;12312;53.362;-1.518;2022-12-07T05:52:25;99938.53;;;0.87;95.44
24154;BME280;12312;53.362;-1.518;2022-12-07T05:54:51;99933.28;;;0.87;95.61
24154;BME280;12312;53.362;-1.518;2022-12-07T05:57:17;99932.38;;;0.88;95.82
24154;BME280;12312;53.362;-1.518;2022-12-07T05:59:43;99923.75;;;0.85;95.65
24154;BME280;12312;53.362;-1.518;2022-12-07T06:02:14;99938.66;;;0.81;96.32
24154;BME280;12312;53.362;-1.518;2022-12-07T06:04:45;99934.31;;;0.82;95.92
24154;BME280;12312;53.362;-1.518;2022-12-07T06:07:15;99933.22;;;0.90;94.99
24154;BME280;12312;53.362;-1.518;2022-12-07T06:09:43;99932.38;;;0.88;95.48
24154;BME280;12312;53.362;-1.518;2022-12-07T06:12:11;99927.16;;;0.88;95.30
24154;BME280;12312;53.362;-1.518;2022-12-07T06:14:55;99919.28;;;0.88;95.07
24154;BME280;12312;53.362;-1.518;2022-12-07T06:17:21;99924.59;;;0.85;95.89
24154;BME280;12312;53.362;-1.518;2022-12-07T06:19:47;99926.34;;;0.86;96.04
24154;BME280;12312;53.362;-1.518;2022-12-07T06:22:12;99917.59;;;0.87;95.59
24154;BME280;12312;53.362;-1.518;2022-12-07T06:24:38;99926.25;;;0.91;95.32
24154;BME280;12312;53.362;-1.518;2022-12-07T06:27:04;99930.69;;;0.87;95.32
24154;BME280;12312;53.362;-1.518;2022-12-07T06:29:30;99927.16;;;0.88;95.59
24154;BME280;12312;53.362;-1.518;2022-12-07T06:31:56;99928.00;;;0.90;95.28
24154;BME280;12312;53.362;-1.518;2022-12-07T06:34:22;99915.72;;;0.92;95.50
24154;BME280;12312;53.362;-1.518;2022-12-07T06:36:49;99914.75;;;0.96;96.68
24154;BME280;12312;53.362;-1.518;2022-12-07T06:39:18;99917.38;;;0.96;95.40
24154;BME280;12312;53.362;-1.518;2022-12-07T06:41:44;99919.09;;;0.97;95.23
24154;BME280;12312;53.362;-1.518;2022-12-07T06:44:10;99923.34;;;1.03;96.04
24154;BME280;12312;53.362;-1.518;2022-12-07T06:46:36;99914.72;;;0.98;94.76
24154;BME280;12312;53.362;-1.518;2022-12-07T06:49:02;99913.06;;;0.94;95.11
24154;BME280;12312;53.362;-1.518;2022-12-07T06:51:28;99913.91;;;0.94;94.28
24154;BME280;12312;53.362;-1.518;2022-12-07T06:53:55;99919.09;;;0.97;94.65
24154;BME280;12312;53.362;-1.518;2022-12-07T06:56:21;99913.88;;;0.96;95.00
24154;BME280;12312;53.362;-1.518;2022-12-07T06:58:48;99920.75;;;1.01;94.63
24154;BME280;12312;53.362;-1.518;2022-12-07T07:01:15;99906.97;;;0.93;95.21
24154;BME280;12312;53.362;-1.518;2022-12-07T07:03:42;99913.91;;;0.94;94.32
24154;BME280;12312;53.362;-1.518;2022-12-07T07:06:08;99913.91;;;0.94;94.08
24154;BME280;12312;53.362;-1.518;2022-12-07T07:08:37;99907.88;;;0.92;94.90
24154;BME280;12312;53.362;-1.518;2022-12-07T07:11:03;99906.97;;;0.93;95.24
24154;BME280;12312;53.362;-1.518;2022-12-07T07:13:29;99910.63;;;0.86;94.48
24154;BME280;12312;53.362;-1.518;2022-12-07T07:15:55;99894.94;;;0.85;94.51
24154;BME280;12312;53.362;-1.518;2022-12-07T07:18:21;99900.16;;;0.86;94.00
24154;BME280;12312;53.362;-1.518;2022-12-07T07:20:47;99903.56;;;0.88;94.56
24154;BME280;12312;53.362;-1.518;2022-12-07T07:23:13;99901.94;;;0.84;94.86
24154;BME280;12312;53.362;-1.518;2022-12-07T07:25:39;99907.09;;;0.87;95.49
24154;BME280;12312;53.362;-1.518;2022-12-07T07:28:04;99905.25;;;0.92;95.01
24154;BME280;12312;53.362;-1.518;2022-12-07T07:30:30;99902.72;;;0.88;94.65
24154;BME280;12312;53.362;-1.518;2022-12-07T07:32:57;99907.16;;;0.84;94.38
24154;BME280;12312;53.362;-1.518;2022-12-07T07:35:23;99889.59;;;0.89;93.81
24154;BME280;12312;53.362;-1.518;2022-12-07T07:37:49;99894.88;;;0.88;94.62
24154;BME280;12312;53.362;-1.518;2022-12-07T07:40:15;99901.94;;;0.84;94.35
24154;BME280;12312;53.362;-1.518;2022-12-07T07:42:40;99900.22;;;0.83;93.52
24154;BME280;12312;53.362;-1.518;2022-12-07T07:45:07;99894.22;;;0.78;94.12
24154;BME280;12312;53.362;-1.518;2022-12-07T07:47:32;99894.09;;;0.83;95.11
24154;BME280;12312;53.362;-1.518;2022-12-07T07:49:58;99896.84;;;0.78;94.32
24154;BME280;12312;53.362;-1.518;2022-12-07T07:52:24;99895.03;;;0.82;94.33
24154;BME280;12312;53.362;-1.518;2022-12-07T07:54:49;99894.06;;;0.84;93.64
24154;BME280;12312;53.362;-1.518;2022-12-07T07:57:16;99894.06;;;0.84;93.80
24154;BME280;12312;53.362;-1.518;2022-12-07T07:59:42;99885.28;;;0.87;93.64
24154;BME280;12312;53.362;-1.518;2022-12-07T08:02:17;99888.69;;;0.90;92.34
24154;BME280;12312;53.362;-1.518;2022-12-07T08:04:43;99892.22;;;0.89;92.91
24154;BME280;12312;53.362;-1.518;2022-12-07T08:07:10;99894.84;;;0.89;92.85
24154;BME280;12312;53.362;-1.518;2022-12-07T08:09:35;99893.09;;;0.88;92.96
24154;BME280;12312;53.362;-1.518;2022-12-07T08:12:01;99900.09;;;0.89;92.91
24154;BME280;12312;53.362;-1.518;2022-12-07T08:14:27;99889.59;;;0.89;93.05
24154;BME280;12312;53.362;-1.518;2022-12-07T08:16:54;99889.53;;;0.92;93.62
24154;BME280;12312;53.362;-1.518;2022-12-07T08:19:20;99889.53;;;0.92;91.73
24154;BME280;12312;53.362;-1.518;2022-12-07T08:21:46;99892.94;;;0.94;91.53
24154;BME280;12312;53.362;-1.518;2022-12-07T08:24:12;99898.25;;;0.91;92.00
24154;BME280;12312;53.362;-1.518;2022-12-07T08:26:37;99886.00;;;0.93;92.41
24154;BME280;12312;53.362;-1.518;2022-12-07T08:29:03;99887.66;;;0.97;91.73
24154;BME280;12312;53.362;-1.518;2022-12-07T08:31:28;99899.13;;;0.92;92.31
24154;BME280;12312;53.362;-1.518;2022-12-07T08:33:55;99899.00;;;0.98;92.09
24154;BME280;12312;53.362;-1.518;2022-12-07T08:36:21;99901.63;;;0.98;91.51
24154;BME280;12312;53.362;-1.518;2022-12-07T08:38:50;99909.53;;;0.95;91.80
24154;BME280;12312;53.362;-1.518;2022-12-07T08:41:16;99905.19;;;0.95;91.68
24154;BME280;12312;53.362;-1.518;2022-12-07T08:43:41;99898.13;;;0.97;91.34
24154;BME280;12312;53.362;-1.518;2022-12-07T08:48:47;99893.78;;;0.96;91.50
24154;BME280;12312;53.362;-1.518;2022-12-07T08:51:14;99903.44;;;0.94;90.80
24154;BME280;12312;53.362;-1.518;2022-12-07T08:53:41;99900.78;;;0.96;90.83
24154;BME280;12312;53.362;-1.518;2022-12-07T08:56:08;99903.38;;;0.97;90.71
24154;BME280;12312;53.362;-1.518;2022-12-07T08:58:35;99905.19;;;0.95;91.20
24154;BME280;12312;53.362;-1.518;2022-12-07T09:01:03;99894.63;;;0.98;91.75
24154;BME280;12312;53.362;-1.518;2022-12-07T09:03:28;99898.00;;;1.03;90.50
24154;BME280;12312;53.362;-1.518;2022-12-07T09:05:54;99899.72;;;1.04;90.63
24154;BME280;12312;53.362;-1.518;2022-12-07T09:08:22;99895.41;;;1.03;90.42
24154;BME280;12312;53.362;-1.518;2022-12-07T09:10:50;99886.63;;;1.04;90.58
24154;BME280;12312;53.362;-1.518;2022-12-07T09:13:16;99890.19;;;1.00;90.68
24154;BME280;12312;53.362;-1.518;2022-12-07T09:15:42;99886.78;;;0.98;91.22
24154;BME280;12312;53.362;-1.518;2022-12-07T09:18:07;99899.66;;;1.07;90.81
24154;BME280;12312;53.362;-1.518;2022-12-07T09:20:33;99883.94;;;1.07;90.56
24154;BME280;12312;53.362;-1.518;2022-12-07T09:22:59;99884.81;;;1.08;90.88
24154;BME280;12312;53.362;-1.518;2022-12-07T09:25:24;99870.81;;;1.07;90.04
24154;BME280;12312;53.362;-1.518;2022-12-07T09:27:56;99872.56;;;1.07;90.51
24154;BME280;12312;53.362;-1.518;2022-12-07T09:30:22;99880.31;;;1.11;90.22
24154;BME280;12312;53.362;-1.518;2022-12-07T09:32:48;99880.25;;;1.14;91.14
24154;BME280;12312;53.362;-1.518;2022-12-07T09:35:13;99885.13;;;1.29;91.82
24154;BME280;12312;53.362;-1.518;2022-12-07T09:37:39;99873.78;;;1.29;91.01
24154;BME280;12312;53.362;-1.518;2022-12-07T09:40:05;99884.38;;;1.24;90.87
24154;BME280;12312;53.362;-1.518;2022-12-07T09:42:43;99880.78;;;1.28;90.30
24154;BME280;12312;53.362;-1.518;2022-12-07T09:45:22;99882.22;;;1.40;90.62
24154;BME280;12312;53.362;-1.518;2022-12-07T09:47:49;99881.47;;;1.36;89.57
24154;BME280;12312;53.362;-1.518;2022-12-07T09:50:33;99876.22;;;1.36;89.38
24154;BME280;12312;53.362;-1.518;2022-12-07T09:53:14;99870.91;;;1.39;89.73
24154;BME280;12312;53.362;-1.518;2022-12-07T09:55:41;99872.59;;;1.40;88.95
24154;BME280;12312;53.362;-1.518;2022-12-07T09:58:20;99874.00;;;1.53;88.27
24154;BME280;12312;53.362;-1.518;2022-12-07T10:00:47;99872.94;;;1.62;88.85
24154;BME280;12312;53.362;-1.518;2022-12-07T10:03:13;99876.47;;;1.61;87.25
24154;BME280;12312;53.362;-1.518;2022-12-07T10:05:45;99871.72;;;1.73;88.29
24154;BME280;12312;53.362;-1.518;2022-12-07T10:08:12;99884.03;;;1.71;87.88
24154;BME280;12312;53.362;-1.518;2022-12-07T10:10:38;99878.81;;;1.71;87.37
24154;BME280;12312;53.362;-1.518;2022-12-07T10:13:09;99871.72;;;1.73;87.52
24154;BME280;12312;53.362;-1.518;2022-12-07T10:18:37;99869.78;;;1.81;86.99
24154;BME280;12312;53.362;-1.518;2022-12-07T10:21:23;99869.78;;;1.81;85.74
24154;BME280;12312;53.362;-1.518;2022-12-07T10:24:00;99870.59;;;1.83;87.16
24154;BME280;12312;53.362;-1.518;2022-12-07T10:34:32;99869.81;;;1.80;87.46
24154;BME280;12312;53.362;-1.518;2022-12-07T10:39:48;99859.06;;;1.89;85.87
24154;BME280;12312;53.362;-1.518;2022-12-07T10:42:31;99857.47;;;1.83;86.45
24154;BME280;12312;53.362;-1.518;2022-12-07T11:05:02;99829.78;;;3.16;79.62
24154;BME280;12312;53.362;-1.518;2022-12-07T11:08:00;99817.50;;;3.16;79.05
24154;BME280;12312;53.362;-1.518;2022-12-07T11:13:40;99814.59;;;3.24;79.54
24154;BME280;12312;53.362;-1.518;2022-12-07T11:21:31;99803.81;;;3.05;79.51
24154;BME280;12312;53.362;-1.518;2022-12-07T11:24:19;99802.41;;;2.95;79.77
24154;BME280;12312;53.362;-1.518;2022-12-07T11:29:36;99794.94;;;2.56;81.87
24154;BME280;12312;53.362;-1.518;2022-12-07T11:37:32;99791.66;;;3.29;79.10
24154;BME280;12312;53.362;-1.518;2022-12-07T11:45:28;99783.44;;;3.38;76.14
24154;BME280;12312;53.362;-1.518;2022-12-07T12:03:36;99740.84;;;5.28;72.30
24154;BME280;12312;53.362;-1.518;2022-12-07T12:06:04;99733.16;;;5.83;68.05
24154;BME280;12312;53.362;-1.518;2022-12-07T12:08:34;99727.59;;;6.80;64.85
24154;BME280;12312;53.362;-1.518;2022-12-07T12:14:22;99712.78;;;6.59;64.59
24154;BME280;12312;53.362;-1.518;2022-12-07T12:19:38;99713.44;;;5.51;66.80
24154;BME280;12312;53.362;-1.518;2022-12-07T12:22:15;99710.34;;;4.60;68.18
24154;BME280;12312;53.362;-1.518;2022-12-07T12:24:43;99710.22;;;4.41;71.27
24154;BME280;12312;53.362;-1.518;2022-12-07T12:27:20;99704.22;;;3.93;72.04
24154;BME280;12312;53.362;-1.518;2022-12-07T12:29:53;99707.66;;;3.49;73.23
24154;BME280;12312;53.362;-1.518;2022-12-07T12:32:24;99703.09;;;3.29;74.77
24154;BME280;12312;53.362;-1.518;2022-12-07T12:42:45;99691.81;;;3.01;78.07
24154;BME280;12312;53.362;-1.518;2022-12-07T12:45:28;99694.28;;;3.06;77.58
24154;BME280;12312;53.362;-1.518;2022-12-07T12:48:00;99680.53;;;3.47;77.09
24154;BME280;12312;53.362;-1.518;2022-12-07T12:50:32;99673.34;;;3.52;73.83
24154;BME280;12312;53.362;-1.518;2022-12-07T12:55:49;99667.66;;;3.15;74.87
24154;BME280;12312;53.362;-1.518;2022-12-07T13:03:54;99677.81;;;3.01;77.01
24154;BME280;12312;53.362;-1.518;2022-12-07T13:06:34;99678.06;;;2.93;76.90
24154;BME280;12312;53.362;-1.518;2022-12-07T13:09:01;99676.41;;;2.91;77.02
24154;BME280;12312;53.362;-1.518;2022-12-07T13:11:34;99687.13;;;2.85;77.51
24154;BME280;12312;53.362;-1.518;2022-12-07T13:17:01;99672.41;;;2.81;79.30
24154;BME280;12312;53.362;-1.518;2022-12-07T13:19:56;99658.56;;;2.76;78.57
24154;BME280;12312;53.362;-1.518;2022-12-07T13:27:35;99637.84;;;2.67;77.93
24154;BME280;12312;53.362;-1.518;2022-12-07T13:30:18;99644.69;;;2.71;77.55
24154;BME280;12312;53.362;-1.518;2022-12-07T13:32:51;99641.19;;;2.72;77.70
24154;BME280;12312;53.362;-1.518;2022-12-07T13:35:33;99631.47;;;2.74;77.66
24154;BME280;12312;53.362;-1.518;2022-12-07T13:38:02;99634.28;;;2.68;78.31
24154;BME280;12312;53.362;-1.518;2022-12-07T13:40:29;99642.38;;;2.62;78.94
24154;BME280;12312;53.362;-1.518;2022-12-07T13:43:04;99644.69;;;2.71;79.11
24154;BME280;12312;53.362;-1.518;2022-12-07T13:45:38;99646.66;;;2.66;79.01
24154;BME280;12312;53.362;-1.518;2022-12-07T13:48:33;99645.13;;;2.59;79.81
24154;BME280;12312;53.362;-1.518;2022-12-07T13:51:02;99648.84;;;2.78;79.68
24154;BME280;12312;53.362;-1.518;2022-12-07T13:53:28;99638.97;;;2.60;79.44
24154;BME280;12312;53.362;-1.518;2022-12-07T13:55:57;99636.28;;;2.61;79.32
24154;BME280;12312;53.362;-1.518;2022-12-07T13:58:24;99634.09;;;2.48;78.61
24154;BME280;12312;53.362;-1.518;2022-12-07T14:00:51;99633.41;;;2.43;79.39
24154;BME280;12312;53.362;-1.518;2022-12-07T14:03:23;99633.53;;;2.40;78.44
24154;BME280;12312;53.362;-1.518;2022-12-07T14:06:11;99614.94;;;2.46;79.21
24154;BME280;12312;53.362;-1.518;2022-12-07T14:08:38;99617.56;;;2.46;81.74
24154;BME280;12312;53.362;-1.518;2022-12-07T14:11:04;99612.63;;;2.37;80.85
24154;BME280;12312;53.362;-1.518;2022-12-07T14:13:50;99606.03;;;2.24;79.54
24154;BME280;12312;53.362;-1.518;2022-12-07T14:18:47;99587.97;;;2.15;80.54
24154;BME280;12312;53.362;-1.518;2022-12-07T14:21:14;99579.34;;;2.11;80.12
24154;BME280;12312;53.362;-1.518;2022-12-07T14:23:41;99582.97;;;2.07;80.85
24154;BME280;12312;53.362;-1.518;2022-12-07T14:26:14;99591.00;;;2.03;80.19
24154;BME280;12312;53.362;-1.518;2022-12-07T14:28:42;99585.91;;;1.98;80.46
24154;BME280;12312;53.362;-1.518;2022-12-07T14:31:19;99578.88;;;1.99;81.56
24154;BME280;12312;53.362;-1.518;2022-12-07T14:33:47;99590.13;;;2.02;82.29
24154;BME280;12312;53.362;-1.518;2022-12-07T14:36:14;99588.31;;;2.04;82.37
24154;BME280;12312;53.362;-1.518;2022-12-07T14:38:39;99575.34;;;2.00;81.53
24154;BME280;12312;53.362;-1.518;2022-12-07T14:41:17;99585.94;;;1.97;82.46
24154;BME280;12312;53.362;-1.518;2022-12-07T14:44:10;99578.25;;;1.91;83.14
24154;BME280;12312;53.362;-1.518;2022-12-07T14:46:37;99573.13;;;1.88;83.51
24154;BME280;12312;53.362;-1.518;2022-12-07T14:49:03;99574.13;;;1.83;83.42
24154;BME280;12312;53.362;-1.518;2022-12-07T14:51:28;99570.63;;;1.83;84.05
24154;BME280;12312;53.362;-1.518;2022-12-07T14:53:55;99570.75;;;1.80;85.34
24154;BME280;12312;53.362;-1.518;2022-12-07T14:56:21;99575.31;;;1.73;86.68
24154;BME280;12312;53.362;-1.518;2022-12-07T14:58:46;99579.03;;;1.66;86.42
24154;BME280;12312;53.362;-1.518;2022-12-07T15:01:13;99570.44;;;1.61;87.15
24154;BME280;12312;53.362;-1.518;2022-12-07T15:03:39;99569.66;;;1.59;86.67
24154;BME280;12312;53.362;-1.518;2022-12-07T15:06:06;99569.81;;;1.53;87.34
24154;BME280;12312;53.362;-1.518;2022-12-07T15:08:32;99569.81;;;1.53;87.04
24154;BME280;12312;53.362;-1.518;2022-12-07T15:10:58;99572.53;;;1.50;87.69
24154;BME280;12312;53.362;-1.518;2022-12-07T15:13:25;99572.50;;;1.52;88.32
24154;BME280;12312;53.362;-1.518;2022-12-07T15:16:13;99573.44;;;1.49;88.22
24154;BME280;12312;53.362;-1.518;2022-12-07T15:18:42;99564.66;;;1.50;88.15
24154;BME280;12312;53.362;-1.518;2022-12-07T15:21:13;99563.16;;;1.43;88.37
24154;BME280;12312;53.362;-1.518;2022-12-07T15:23:40;99563.44;;;1.34;88.37
24154;BME280;12312;53.362;-1.518;2022-12-07T15:26:06;99566.00;;;1.36;88.43